CMA CGM Herodote — MFEP — position and weather

sailwx.info

Track history (hours):
 
Tides and Currents Weather Stations Pressure Air Temp Water Temp Dewpoint Dewpoint Depression Visibility Wind Speed Wind Dir Waves Ship Positions

CMA CGM Herodote

Last reported at 2016-May-27 01:33 UTC. Time now 2016-May-27 02:20 UTC.
Position N 57°35' E 009°05'.

Length 170 m; draft 9.3 m.

Type: Ship (hazmat cat A). MMSI: 235051085.

Date/timePositionNaut miles runAvg speedWind from/ knotsBaromVisibWave heightAir tempDewpointWater temp
2016-May-27 01:33N 57°35' E 009°05'1919.2
2016-May-27 00:33N 57°46' E 009°34'1918.7
2016-May-26 23:33N 57°50' E 010°08'1919.3
2016-May-26 22:34N 57°50' E 010°44'1918.9
2016-May-26 21:33N 57°37' E 011°09'1918.5
2016-May-26 20:33N 57°22' E 011°29'1919.0
2016-May-26 19:33N 57°04' E 011°42'1918.9
2016-May-26 18:33N 56°46' E 011°53'2618.7
2016-May-26 17:09N 56°23' E 011°30'1118.8
2016-May-26 16:33N 56°14' E 011°20'2019.1
2016-May-26 15:30N 55°57' E 010°60'3316.4
2016-May-26 13:31N 55°24' E 011°01'1617.2
2016-May-26 12:33N 55°08' E 011°03'1717.4
2016-May-26 11:33N 54°51' E 010°53'1515.4
2016-May-26 10:33N 54°38' E 011°05'1919.2
2016-May-26 09:33N 54°29' E 011°35'1918.7
2016-May-26 08:33N 54°26' E 012°07'1616.5
2016-May-26 07:33N 54°40' E 012°23'3918.3
2016-May-26 05:27N 54°56' E 013°24'1718.9
2016-May-26 04:33N 55°02' E 013°51'1818.4
2016-May-26 03:34N 55°13' E 014°16'1918.8
2016-May-26 02:33N 55°27' E 014°39'1919.3
2016-May-26 01:34N 55°36' E 015°08'30819.3
2016-May-25 09:33N 59°14' E 021°54'1919.0
2016-May-25 08:33N 59°26' E 022°23'1919.0
2016-May-25 07:33N 59°34' E 022°57'1919.2
2016-May-25 06:33N 59°40' E 023°33'2019.5
2016-May-25 05:33N 59°45' E 024°10'1918.9
2016-May-25 04:33N 59°49' E 024°47'4119.2
2016-May-25 02:27N 59°57' E 026°06'1719.0
2016-May-25 01:33N 60°01' E 026°39'1818.1
2016-May-25 00:33N 60°03' E 027°15'1918.8
2016-May-24 23:33N 60°11' E 027°49'1918.7
2016-May-24 22:33N 60°05' E 028°24'1918.6
2016-May-24 21:33N 60°03' E 029°01'1413.7
2016-May-24 20:33N 60°01' E 029°28'9 8.9
2016-May-24 19:33N 59°58' E 029°45'2 2.0
2016-May-24 18:31N 59°56' E 029°42'0 0.0
2016-May-24 17:31N 59°56' E 029°42'0 0.0
2016-May-24 16:31N 59°56' E 029°42'0 0.0
2016-May-24 15:31N 59°56' E 029°42'0 0.0
2016-May-24 14:19N 59°56' E 029°42'0 0.0
2016-May-24 13:19N 59°56' E 029°42'0 0.0
2016-May-24 12:25N 59°56' E 029°42'0 0.0
2016-May-24 11:31N 59°56' E 029°42'0 0.0
2016-May-24 10:31N 59°56' E 029°42'0 0.0
2016-May-24 09:31N 59°56' E 029°42'0 0.0
2016-May-24 08:31N 59°56' E 029°42'0 0.0
2016-May-24 07:28N 59°56' E 029°42'0 0.0
2016-May-24 06:31N 59°56' E 029°42'0 0.0
2016-May-24 05:31N 59°56' E 029°42'0 0.0
2016-May-24 04:28N 59°56' E 029°42'0 0.0
2016-May-24 03:31N 59°56' E 029°42'0 0.0
2016-May-24 02:31N 59°56' E 029°42'0 0.0
2016-May-24 01:31N 59°56' E 029°42'0 0.0
2016-May-24 00:31N 59°56' E 029°42'2 2.5
2016-May-23 23:33N 59°58' E 029°45'4 4.2
2016-May-23 22:33N 59°57' E 029°53'1010.2
2016-May-23 21:34N 59°53' E 030°11'1 0.7
2016-May-23 20:33N 59°52' E 030°12'0 0.0
2016-May-23 19:33N 59°52' E 030°12'0 0.0
2016-May-23 18:33N 59°52' E 030°12'0 0.0
2016-May-23 17:33N 59°52' E 030°12'0 0.0
2016-May-23 16:33N 59°52' E 030°12'0 0.0
2016-May-23 15:33N 59°52' E 030°12'0 0.0
2016-May-23 14:33N 59°52' E 030°12'0 0.0
2016-May-23 13:33N 59°52' E 030°12'0 0.0
2016-May-23 12:33N 59°52' E 030°12'0 0.0
2016-May-23 11:33N 59°52' E 030°12'0 0.0
2016-May-23 10:33N 59°52' E 030°12'0 0.0
2016-May-23 09:33N 59°52' E 030°12'0 0.0
2016-May-23 08:33N 59°52' E 030°12'0 0.0
2016-May-23 07:33N 59°52' E 030°12'0 0.0
2016-May-23 06:33N 59°52' E 030°12'0 0.0
2016-May-23 05:33N 59°52' E 030°12'0 0.0
2016-May-23 04:33N 59°52' E 030°12'0 0.0
2016-May-23 03:33N 59°52' E 030°12'1 0.7
2016-May-23 02:33N 59°53' E 030°11'0 0.2
2016-May-23 01:33N 59°53' E 030°11'0 0.0
2016-May-23 00:33N 59°53' E 030°11'0 0.0
2016-May-22 23:33N 59°53' E 030°11'0 0.0
2016-May-22 22:33N 59°53' E 030°11'0 0.0
2016-May-22 21:32N 59°53' E 030°11'0 0.0
2016-May-22 20:32N 59°53' E 030°11'0 0.0
2016-May-22 19:32N 59°53' E 030°11'0 0.0
2016-May-22 18:32N 59°53' E 030°11'0 0.0
2016-May-22 17:32N 59°53' E 030°11'0 0.0
2016-May-22 16:32N 59°53' E 030°11'0 0.0
2016-May-22 15:32N 59°53' E 030°11'1 0.9
2016-May-22 14:33N 59°53' E 030°10'9 9.2
2016-May-22 13:33N 59°57' E 029°53'1110.9
2016-May-22 12:33N 60°01' E 029°33'1510.7
2016-May-22 11:11N 60°02' E 029°04'912.9
2016-May-22 10:31N 60°02' E 028°46'1111.3
2016-May-22 09:33N 60°03' E 028°25'1313.1
2016-May-22 08:33N 60°09' E 028°01'1312.7
2016-May-22 07:33N 60°08' E 027°36'1613.4
2016-May-22 06:24N 60°00' E 027°09'1113.0
2016-May-22 05:33N 59°59' E 026°47'1515.2
2016-May-22 04:33N 59°56' E 026°17'1815.9
2016-May-22 03:27N 59°52' E 025°43'4615.8
2016-May-22 00:33N 59°42' E 024°15'1615.7
2016-May-21 23:33N 59°37' E 023°45'1615.9
2016-May-21 22:33N 59°32' E 023°15'1616.1
2016-May-21 21:33N 59°28' E 022°45'32215.3
2016-May-21 00:33N 55°42' E 015°38'1514.9
2016-May-20 23:33N 55°35' E 015°15'1515.1
2016-May-20 22:33N 55°27' E 014°52'1514.6
2016-May-20 21:33N 55°18' E 014°31'1514.8
2016-May-20 20:34N 55°07' E 014°16'1514.5
2016-May-20 19:33N 54°59' E 013°54'1515.1
2016-May-20 18:33N 54°54' E 013°29'1914.8
2016-May-20 17:16N 54°47' E 012°58'1014.2
2016-May-20 16:33N 54°44' E 012°41'1614.6
2016-May-20 15:28N 54°35' E 012°19'1314.1
2016-May-20 14:33N 54°24' E 012°07'1515.3
2016-May-20 13:34N 54°27' E 011°41'1615.5
2016-May-20 12:33N 54°33' E 011°17'1515.5
2016-May-20 11:34N 54°41' E 010°54'1413.6
2016-May-20 10:34N 54°55' E 010°53'1413.7
2016-May-20 09:34N 55°08' E 011°02'1413.7
2016-May-20 08:33N 55°21' E 011°02'4013.0
2016-May-20 05:30N 56°01' E 011°03'1313.9
2016-May-20 04:32N 56°12' E 011°18'1413.9
2016-May-20 03:33N 56°24' E 011°28'1414.2
2016-May-20 02:33N 56°36' E 011°42'1313.2
2016-May-20 01:33N 56°48' E 011°49'1413.9
2016-May-20 00:33N 57°02' E 011°41'1414.2
2016-May-19 23:34N 57°15' E 011°32'1414.5
2016-May-19 22:33N 57°28' E 011°23'1414.4
2016-May-19 21:34N 57°38' E 011°03'1414.3
2016-May-19 20:33N 57°48' E 010°43'1514.9
2016-May-19 19:33N 57°50' E 010°15'1514.9
2016-May-19 18:33N 57°49' E 009°47'15014.4
2016-May-19 08:05N 55°52' E 006°54'712.2
2016-May-19 07:33N 55°46' E 006°48'1414.3
2016-May-19 06:34N 55°34' E 006°36'9515.5
2016-May-19 00:25N 54°12' E 005°13'1415.8
2016-May-18 23:33N 53°59' E 005°03'1615.6
2016-May-18 22:33N 53°45' E 004°54'3115.3
2016-May-18 20:31N 53°16' E 004°35'1514.9
2016-May-18 19:32N 53°03' E 004°23'1615.0
2016-May-18 18:28N 52°48' E 004°11'1415.1
2016-May-18 17:33N 52°38' E 003°57'1515.3
2016-May-18 16:33N 52°23' E 003°53'1615.7
2016-May-18 15:33N 52°07' E 003°55'1010.5
2016-May-18 14:34N 51°59' E 004°05'2 2.0
2016-May-18 13:32N 51°59' E 004°02'0 0.0
2016-May-18 12:32N 51°59' E 004°02'0 0.0
2016-May-18 11:32N 51°59' E 004°02'0 0.0
2016-May-18 10:32N 51°59' E 004°02'0 0.0
2016-May-18 09:32N 51°59' E 004°02'0 0.0
2016-May-18 08:32N 51°59' E 004°02'0 0.0
2016-May-18 07:32N 51°59' E 004°02'0 0.0
2016-May-18 06:32N 51°59' E 004°02'0 0.0
2016-May-18 05:32N 51°59' E 004°02'0 0.0
2016-May-18 04:32N 51°59' E 004°02'0 0.0
2016-May-18 03:32N 51°59' E 004°02'0 0.0
2016-May-18 02:32N 51°59' E 004°02'0 0.0
2016-May-18 01:33N 51°59' E 004°02'2 2.2
2016-May-18 00:34N 51°57' E 004°04'0 0.5
2016-May-17 23:32N 51°57' E 004°03'0 0.0
2016-May-17 22:29N 51°57' E 004°03'0 0.0
2016-May-17 21:32N 51°57' E 004°03'0 0.0
2016-May-17 20:32N 51°57' E 004°03'0 0.0
2016-May-17 19:32N 51°57' E 004°03'0 0.0
2016-May-17 18:32N 51°57' E 004°03'0 0.0
2016-May-17 17:32N 51°57' E 004°03'0 0.0
2016-May-17 16:32N 51°57' E 004°03'0 0.0
2016-May-17 15:32N 51°57' E 004°03'0 0.5
2016-May-17 14:34N 51°57' E 004°04'8 8.1
2016-May-17 13:34N 52°00' E 003°52'1010.0
2016-May-17 12:33N 51°57' E 003°36'1816.1
2016-May-17 11:26N 51°44' E 003°17'1213.5
2016-May-17 10:33N 51°34' E 003°25'1111.1
2016-May-17 09:34N 51°26' E 003°39'1010.1
2016-May-17 08:34N 51°21' E 003°53'7 6.6
2016-May-17 07:34N 51°23' E 004°03'9 9.2
2016-May-17 06:33N 51°19' E 004°16'2 1.9
2016-May-17 05:30N 51°17' E 004°16'0 0.0
2016-May-17 04:33N 51°17' E 004°16'0 0.0
2016-May-17 03:33N 51°17' E 004°16'0 0.0
2016-May-17 02:30N 51°17' E 004°16'  
Track history (hours):
 
Tides and Currents Weather Stations Pressure Air Temp Water Temp Dewpoint Dewpoint Depression Visibility Wind Speed Wind Dir Waves Ship Positions

CMA CGM Herodote

Last reported at 2016-May-27 01:33 UTC. Time now 2016-May-27 02:20 UTC.
Position N 57°35' E 009°05'.

Length 170 m; draft 9.3 m.

Type: Ship (hazmat cat A). MMSI: 235051085.

Date/timePositionNaut miles runAvg speedWind from/ knotsBaromVisibWave heightAir tempDewpointWater temp
2016-May-27 01:33N 57°35' E 009°05'1919.2
2016-May-27 00:33N 57°46' E 009°34'1918.7
2016-May-26 23:33N 57°50' E 010°08'1919.3
2016-May-26 22:34N 57°50' E 010°44'1918.9
2016-May-26 21:33N 57°37' E 011°09'1918.5
2016-May-26 20:33N 57°22' E 011°29'1919.0
2016-May-26 19:33N 57°04' E 011°42'1918.9
2016-May-26 18:33N 56°46' E 011°53'2618.7
2016-May-26 17:09N 56°23' E 011°30'1118.8
2016-May-26 16:33N 56°14' E 011°20'2019.1
2016-May-26 15:30N 55°57' E 010°60'3316.4
2016-May-26 13:31N 55°24' E 011°01'1617.2
2016-May-26 12:33N 55°08' E 011°03'1717.4
2016-May-26 11:33N 54°51' E 010°53'1515.4
2016-May-26 10:33N 54°38' E 011°05'1919.2
2016-May-26 09:33N 54°29' E 011°35'1918.7
2016-May-26 08:33N 54°26' E 012°07'1616.5
2016-May-26 07:33N 54°40' E 012°23'3918.3
2016-May-26 05:27N 54°56' E 013°24'1718.9
2016-May-26 04:33N 55°02' E 013°51'1818.4
2016-May-26 03:34N 55°13' E 014°16'1918.8
2016-May-26 02:33N 55°27' E 014°39'1919.3
2016-May-26 01:34N 55°36' E 015°08'30819.3
2016-May-25 09:33N 59°14' E 021°54'1919.0
2016-May-25 08:33N 59°26' E 022°23'1919.0
2016-May-25 07:33N 59°34' E 022°57'1919.2
2016-May-25 06:33N 59°40' E 023°33'2019.5
2016-May-25 05:33N 59°45' E 024°10'1918.9
2016-May-25 04:33N 59°49' E 024°47'4119.2
2016-May-25 02:27N 59°57' E 026°06'1719.0
2016-May-25 01:33N 60°01' E 026°39'1818.1
2016-May-25 00:33N 60°03' E 027°15'1918.8
2016-May-24 23:33N 60°11' E 027°49'1918.7
2016-May-24 22:33N 60°05' E 028°24'1918.6
2016-May-24 21:33N 60°03' E 029°01'1413.7
2016-May-24 20:33N 60°01' E 029°28'9 8.9
2016-May-24 19:33N 59°58' E 029°45'2 2.0
2016-May-24 18:31N 59°56' E 029°42'0 0.0
2016-May-24 17:31N 59°56' E 029°42'0 0.0
2016-May-24 16:31N 59°56' E 029°42'0 0.0
2016-May-24 15:31N 59°56' E 029°42'0 0.0
2016-May-24 14:19N 59°56' E 029°42'0 0.0
2016-May-24 13:19N 59°56' E 029°42'0 0.0
2016-May-24 12:25N 59°56' E 029°42'0 0.0
2016-May-24 11:31N 59°56' E 029°42'0 0.0
2016-May-24 10:31N 59°56' E 029°42'0 0.0
2016-May-24 09:31N 59°56' E 029°42'0 0.0
2016-May-24 08:31N 59°56' E 029°42'0 0.0
2016-May-24 07:28N 59°56' E 029°42'0 0.0
2016-May-24 06:31N 59°56' E 029°42'0 0.0
2016-May-24 05:31N 59°56' E 029°42'0 0.0
2016-May-24 04:28N 59°56' E 029°42'0 0.0
2016-May-24 03:31N 59°56' E 029°42'0 0.0
2016-May-24 02:31N 59°56' E 029°42'0 0.0
2016-May-24 01:31N 59°56' E 029°42'0 0.0
2016-May-24 00:31N 59°56' E 029°42'2 2.5
2016-May-23 23:33N 59°58' E 029°45'4 4.2
2016-May-23 22:33N 59°57' E 029°53'1010.2
2016-May-23 21:34N 59°53' E 030°11'1 0.7
2016-May-23 20:33N 59°52' E 030°12'0 0.0
2016-May-23 19:33N 59°52' E 030°12'0 0.0
2016-May-23 18:33N 59°52' E 030°12'0 0.0
2016-May-23 17:33N 59°52' E 030°12'0 0.0
2016-May-23 16:33N 59°52' E 030°12'0 0.0
2016-May-23 15:33N 59°52' E 030°12'0 0.0
2016-May-23 14:33N 59°52' E 030°12'0 0.0
2016-May-23 13:33N 59°52' E 030°12'0 0.0
2016-May-23 12:33N 59°52' E 030°12'0 0.0
2016-May-23 11:33N 59°52' E 030°12'0 0.0
2016-May-23 10:33N 59°52' E 030°12'0 0.0
2016-May-23 09:33N 59°52' E 030°12'0 0.0
2016-May-23 08:33N 59°52' E 030°12'0 0.0
2016-May-23 07:33N 59°52' E 030°12'0 0.0
2016-May-23 06:33N 59°52' E 030°12'0 0.0
2016-May-23 05:33N 59°52' E 030°12'0 0.0
2016-May-23 04:33N 59°52' E 030°12'0 0.0
2016-May-23 03:33N 59°52' E 030°12'1 0.7
2016-May-23 02:33N 59°53' E 030°11'0 0.2
2016-May-23 01:33N 59°53' E 030°11'0 0.0
2016-May-23 00:33N 59°53' E 030°11'0 0.0
2016-May-22 23:33N 59°53' E 030°11'0 0.0
2016-May-22 22:33N 59°53' E 030°11'0 0.0
2016-May-22 21:32N 59°53' E 030°11'0 0.0
2016-May-22 20:32N 59°53' E 030°11'0 0.0
2016-May-22 19:32N 59°53' E 030°11'0 0.0
2016-May-22 18:32N 59°53' E 030°11'0 0.0
2016-May-22 17:32N 59°53' E 030°11'0 0.0
2016-May-22 16:32N 59°53' E 030°11'0 0.0
2016-May-22 15:32N 59°53' E 030°11'1 0.9
2016-May-22 14:33N 59°53' E 030°10'9 9.2
2016-May-22 13:33N 59°57' E 029°53'1110.9
2016-May-22 12:33N 60°01' E 029°33'1510.7
2016-May-22 11:11N 60°02' E 029°04'912.9
2016-May-22 10:31N 60°02' E 028°46'1111.3
2016-May-22 09:33N 60°03' E 028°25'1313.1
2016-May-22 08:33N 60°09' E 028°01'1312.7
2016-May-22 07:33N 60°08' E 027°36'1613.4
2016-May-22 06:24N 60°00' E 027°09'1113.0
2016-May-22 05:33N 59°59' E 026°47'1515.2
2016-May-22 04:33N 59°56' E 026°17'1815.9
2016-May-22 03:27N 59°52' E 025°43'4615.8
2016-May-22 00:33N 59°42' E 024°15'1615.7
2016-May-21 23:33N 59°37' E 023°45'1615.9
2016-May-21 22:33N 59°32' E 023°15'1616.1
2016-May-21 21:33N 59°28' E 022°45'32215.3
2016-May-21 00:33N 55°42' E 015°38'1514.9
2016-May-20 23:33N 55°35' E 015°15'1515.1
2016-May-20 22:33N 55°27' E 014°52'1514.6
2016-May-20 21:33N 55°18' E 014°31'1514.8
2016-May-20 20:34N 55°07' E 014°16'1514.5
2016-May-20 19:33N 54°59' E 013°54'1515.1
2016-May-20 18:33N 54°54' E 013°29'1914.8
2016-May-20 17:16N 54°47' E 012°58'1014.2
2016-May-20 16:33N 54°44' E 012°41'1614.6
2016-May-20 15:28N 54°35' E 012°19'1314.1
2016-May-20 14:33N 54°24' E 012°07'1515.3
2016-May-20 13:34N 54°27' E 011°41'1615.5
2016-May-20 12:33N 54°33' E 011°17'1515.5
2016-May-20 11:34N 54°41' E 010°54'1413.6
2016-May-20 10:34N 54°55' E 010°53'1413.7
2016-May-20 09:34N 55°08' E 011°02'1413.7
2016-May-20 08:33N 55°21' E 011°02'4013.0
2016-May-20 05:30N 56°01' E 011°03'1313.9
2016-May-20 04:32N 56°12' E 011°18'1413.9
2016-May-20 03:33N 56°24' E 011°28'1414.2
2016-May-20 02:33N 56°36' E 011°42'1313.2
2016-May-20 01:33N 56°48' E 011°49'1413.9
2016-May-20 00:33N 57°02' E 011°41'1414.2
2016-May-19 23:34N 57°15' E 011°32'1414.5
2016-May-19 22:33N 57°28' E 011°23'1414.4
2016-May-19 21:34N 57°38' E 011°03'1414.3
2016-May-19 20:33N 57°48' E 010°43'1514.9
2016-May-19 19:33N 57°50' E 010°15'1514.9
2016-May-19 18:33N 57°49' E 009°47'15014.4
2016-May-19 08:05N 55°52' E 006°54'712.2
2016-May-19 07:33N 55°46' E 006°48'1414.3
2016-May-19 06:34N 55°34' E 006°36'9515.5
2016-May-19 00:25N 54°12' E 005°13'1415.8
2016-May-18 23:33N 53°59' E 005°03'1615.6
2016-May-18 22:33N 53°45' E 004°54'3115.3
2016-May-18 20:31N 53°16' E 004°35'1514.9
2016-May-18 19:32N 53°03' E 004°23'1615.0
2016-May-18 18:28N 52°48' E 004°11'1415.1
2016-May-18 17:33N 52°38' E 003°57'1515.3
2016-May-18 16:33N 52°23' E 003°53'1615.7
2016-May-18 15:33N 52°07' E 003°55'1010.5
2016-May-18 14:34N 51°59' E 004°05'2 2.0
2016-May-18 13:32N 51°59' E 004°02'0 0.0
2016-May-18 12:32N 51°59' E 004°02'0 0.0
2016-May-18 11:32N 51°59' E 004°02'0 0.0
2016-May-18 10:32N 51°59' E 004°02'0 0.0
2016-May-18 09:32N 51°59' E 004°02'0 0.0
2016-May-18 08:32N 51°59' E 004°02'0 0.0
2016-May-18 07:32N 51°59' E 004°02'0 0.0
2016-May-18 06:32N 51°59' E 004°02'0 0.0
2016-May-18 05:32N 51°59' E 004°02'0 0.0
2016-May-18 04:32N 51°59' E 004°02'0 0.0
2016-May-18 03:32N 51°59' E 004°02'0 0.0
2016-May-18 02:32N 51°59' E 004°02'0 0.0
2016-May-18 01:33N 51°59' E 004°02'2 2.2
2016-May-18 00:34N 51°57' E 004°04'0 0.5
2016-May-17 23:32N 51°57' E 004°03'0 0.0
2016-May-17 22:29N 51°57' E 004°03'0 0.0
2016-May-17 21:32N 51°57' E 004°03'0 0.0
2016-May-17 20:32N 51°57' E 004°03'0 0.0
2016-May-17 19:32N 51°57' E 004°03'0 0.0
2016-May-17 18:32N 51°57' E 004°03'0 0.0
2016-May-17 17:32N 51°57' E 004°03'0 0.0
2016-May-17 16:32N 51°57' E 004°03'0 0.0
2016-May-17 15:32N 51°57' E 004°03'0 0.5
2016-May-17 14:34N 51°57' E 004°04'8 8.1
2016-May-17 13:34N 52°00' E 003°52'1010.0
2016-May-17 12:33N 51°57' E 003°36'1816.1
2016-May-17 11:26N 51°44' E 003°17'1213.5
2016-May-17 10:33N 51°34' E 003°25'1111.1
2016-May-17 09:34N 51°26' E 003°39'1010.1
2016-May-17 08:34N 51°21' E 003°53'7 6.6
2016-May-17 07:34N 51°23' E 004°03'9 9.2
2016-May-17 06:33N 51°19' E 004°16'2 1.9
2016-May-17 05:30N 51°17' E 004°16'0 0.0
2016-May-17 04:33N 51°17' E 004°16'0 0.0
2016-May-17 03:33N 51°17' E 004°16'0 0.0
2016-May-17 02:30N 51°17' E 004°16'  

Dump ship's entire track history